Time;durP1;ratioP1;P1;durP2;ratioP2;P2;SDS_P1;SDS_P2;PMS_P1;PMS_P2;Temp;Humidity;BMP_temperature;BMP_pressure;BME280_temperature;BME280_humidity;BME280_pressure;Samples;Min_cycle;Max_cycle;Signal;HPM_P1;HPM_P2
2022/09/14 00:03:40;;;;;;;9.30;8.30;;;;;;;15.52;73.80;97763.85;433412;1270;99255;-39
2022/09/14 00:13:49;;;;;;;11.00;8.90;;;;;;;15.41;73.82;97757.67;433199;1269;112599;-40
2022/09/14 00:23:56;;;;;;;9.50;8.50;;;;;;;15.34;73.98;97760.13;432863;1269;108734;-39
2022/09/14 00:34:05;;;;;;;11.00;8.50;;;;;;;15.27;74.04;97744.76;432705;1270;98856;-39
2022/09/14 00:44:43;;;;;;;12.20;8.30;;;;;;;15.26;74.19;97730.55;433034;1271;108952;-39
2022/09/14 00:54:54;;;;;;;10.50;8.40;;;;;;;15.24;74.48;97727.59;432434;1270;99242;-39
2022/09/14 01:05:02;;;;;;;10.20;8.10;;;;;;;15.11;74.48;97722.23;432762;1271;112524;-39
2022/09/14 01:15:20;;;;;;;8.90;7.50;;;;;;;15.06;74.59;97721.64;432435;1270;109039;-40
2022/09/14 01:25:41;;;;;;;8.90;7.40;;;;;;;15.01;74.42;97721.95;433426;1261;98036;-39
2022/09/14 01:35:52;;;;;;;9.00;7.20;;;;;;;14.97;74.67;97713.89;432267;1270;108796;-40
2022/09/14 01:46:04;;;;;;;9.50;7.50;;;;;;;14.90;75.03;97695.38;432451;1270;99241;-39
2022/09/14 01:56:14;;;;;;;10.00;7.70;;;;;;;14.69;75.06;97685.34;432742;1270;112528;-39
2022/09/14 02:06:19;;;;;;;11.20;7.70;;;;;;;14.56;75.12;97689.59;433166;1270;108827;-39
2022/09/14 02:16:27;;;;;;;10.30;7.10;;;;;;;14.49;75.32;97671.40;432709;1270;99240;-39
2022/09/14 02:26:35;;;;;;;9.50;6.70;;;;;;;14.44;75.60;97665.44;432612;1270;108830;-39
2022/09/14 02:36:43;;;;;;;8.50;7.60;;;;;;;14.44;75.69;97662.45;433104;1269;98940;-39
2022/09/14 02:46:58;;;;;;;18.80;7.30;;;;;;;14.43;75.96;97648.50;432367;1270;112546;-40
2022/09/14 02:57:06;;;;;;;9.70;8.70;;;;;;;14.42;76.10;97644.39;433081;1270;108787;-40
2022/09/14 03:07:14;;;;;;;10.40;8.30;;;;;;;14.40;76.24;97641.85;433178;1270;98056;-39
2022/09/14 03:17:21;;;;;;;14.00;9.30;;;;;;;14.33;76.11;97639.35;433155;1269;109045;-39
2022/09/14 03:27:28;;;;;;;10.60;7.20;;;;;;;14.28;76.22;97644.13;432357;1270;99279;-40
2022/09/14 03:37:39;;;;;;;6.90;5.90;;;;;;;14.30;76.45;97657.79;432561;1269;112270;-41
2022/09/14 03:57:53;;;;;;;9.00;8.00;;;;;;;14.23;76.65;97641.70;433077;1270;101520;-39
2022/09/14 04:08:00;;;;;;;12.70;8.30;;;;;;;14.19;76.96;97644.93;432269;1270;108796;-39
2022/09/14 04:18:08;;;;;;;13.10;8.50;;;;;;;14.20;76.86;97648.70;433255;1269;98004;-39
2022/09/14 04:28:15;;;;;;;10.90;8.70;;;;;;;14.26;76.89;97644.30;433246;1270;112663;-40
2022/09/14 04:38:27;;;;;;;11.20;7.60;;;;;;;14.26;77.02;97639.59;433178;1270;108786;-40
2022/09/14 04:48:34;;;;;;;9.50;8.50;;;;;;;14.31;77.09;97645.38;432524;1270;98813;-40
2022/09/14 04:58:44;;;;;;;16.90;9.50;;;;;;;14.29;77.33;97650.77;432688;1270;108768;-40
2022/09/14 05:08:59;;;;;;;15.10;10.20;;;;;;;14.32;77.50;97651.17;432963;1270;99245;-39
2022/09/14 05:19:11;;;;;;;11.30;9.70;;;;;;;14.41;77.32;97650.38;432815;1270;112351;-40
2022/09/14 05:29:19;;;;;;;11.70;9.50;;;;;;;14.55;77.36;97648.11;432132;1270;108895;-41
2022/09/14 05:39:25;;;;;;;10.00;8.60;;;;;;;14.75;77.50;97653.52;433002;1270;99786;-41
2022/09/14 05:49:32;;;;;;;10.60;7.90;;;;;;;15.05;77.47;97647.68;433019;1270;108685;-41
2022/09/14 05:59:39;;;;;;;11.30;9.90;;;;;;;15.39;77.64;97645.08;433288;1270;99260;-41
2022/09/14 06:09:46;;;;;;;16.40;11.80;;;;;;;15.56;77.50;97649.20;431993;1270;1550821;-41
2022/09/14 06:19:53;;;;;;;21.10;13.60;;;;;;;16.23;77.42;97645.52;432206;1269;108777;-40
2022/09/14 06:30:01;;;;;;;14.90;9.30;;;;;;;16.80;77.17;97654.67;432831;1270;98927;-40
2022/09/14 06:40:09;;;;;;;10.90;8.90;;;;;;;17.04;76.93;97666.33;432364;1270;108955;-40
2022/09/14 06:50:17;;;;;;;16.70;10.60;;;;;;;16.95;76.59;97677.21;433078;1270;99233;-40
2022/09/14 07:00:24;;;;;;;12.10;8.80;;;;;;;16.95;76.51;97683.35;433209;1270;112539;-40
2022/09/14 07:10:30;;;;;;;9.20;7.60;;;;;;;17.14;76.42;97682.77;433035;1270;108481;-39
2022/09/14 07:20:37;;;;;;;9.40;8.20;;;;;;;17.34;76.75;97683.83;433197;1270;97994;-39
2022/09/14 07:30:44;;;;;;;12.10;8.40;;;;;;;17.56;76.47;97678.33;433063;1271;108836;-39
2022/09/14 07:40:52;;;;;;;18.00;8.70;;;;;;;17.81;76.15;97673.77;433275;1270;98837;-39
2022/09/14 07:51:02;;;;;;;8.70;6.50;;;;;;;18.32;76.24;97675.42;433464;1270;112446;-39
2022/09/14 08:11:20;;;;;;;9.90;5.60;;;;;;;19.27;75.21;97673.58;433314;1269;99162;-39
2022/09/14 08:21:30;;;;;;;7.60;4.70;;;;;;;19.31;74.77;97669.52;433466;1270;109068;-39
2022/09/14 08:31:38;;;;;;;4.70;4.00;;;;;;;19.68;74.49;97661.18;433122;1270;98933;-39
2022/09/14 08:41:46;;;;;;;9.20;4.00;;;;;;;20.01;73.76;97654.20;432790;1270;112429;-41
2022/09/14 08:51:53;;;;;;;7.50;4.40;;;;;;;20.13;73.04;97656.71;432954;1269;108922;-40
2022/09/14 09:02:01;;;;;;;5.90;3.60;;;;;;;20.29;72.35;97651.69;432521;1271;99330;-41
2022/09/14 09:12:16;;;;;;;6.40;3.20;;;;;;;20.48;71.76;97649.96;433040;1271;107859;-40
2022/09/14 09:22:28;;;;;;;5.00;2.30;;;;;;;20.54;71.05;97645.63;433142;1271;98669;-39
2022/09/14 09:32:37;;;;;;;3.40;2.40;;;;;;;20.53;70.54;97648.89;433325;1270;112553;-40
2022/09/14 09:43:04;;;;;;;4.00;2.60;;;;;;;20.56;70.24;97649.96;432955;1270;108791;-39
2022/09/14 09:53:15;;;;;;;6.40;2.90;;;;;;;20.68;69.82;97646.54;433059;1271;99272;-40
2022/09/14 10:03:21;;;;;;;6.30;3.10;;;;;;;20.78;69.06;97652.48;432146;1271;108818;-40
2022/09/14 10:13:28;;;;;;;7.00;3.10;;;;;;;20.82;68.73;97663.04;432894;1270;99270;-40
2022/09/14 10:23:37;;;;;;;3.40;2.80;;;;;;;21.01;68.62;97655.61;432881;1271;111622;-40
2022/09/14 10:54:12;;;;;;;6.10;4.50;;;;;;;20.87;67.73;97644.27;432504;1271;109366;-40
2022/09/14 11:04:21;;;;;;;4.50;4.00;;;;;;;20.57;67.85;97637.48;432529;1270;99893;-40
2022/09/14 11:14:35;;;;;;;6.50;3.70;;;;;;;20.33;67.88;97633.02;432810;1269;112386;-39
2022/09/14 11:24:40;;;;;;;9.50;3.70;;;;;;;20.18;68.02;97630.41;432133;1270;109132;-39
2022/09/14 11:34:53;;;;;;;4.20;3.70;;;;;;;20.37;68.19;97616.58;432631;1270;99454;-40
2022/09/14 11:45:06;;;;;;;8.00;3.80;;;;;;;20.55;67.76;97602.86;432670;1270;109016;-40
2022/09/14 11:55:18;;;;;;;4.30;3.70;;;;;;;20.63;67.55;97590.17;433021;1270;99337;-40
2022/09/14 12:05:42;;;;;;;8.20;4.20;;;;;;;20.75;67.48;97586.65;432508;1270;112442;-40
2022/09/14 12:16:00;;;;;;;7.70;4.30;;;;;;;20.67;67.52;97588.39;432522;1270;108803;-40
2022/09/14 12:26:15;;;;;;;;;;;;;;;20.62;67.84;97591.10;432862;1269;99462;-40
2022/09/14 12:36:55;;;;;;;7.70;4.10;;;;;;;20.46;68.05;97589.73;432304;1270;108997;-39
2022/09/14 12:47:28;;;;;;;6.30;4.90;;;;;;;20.32;68.42;97585.95;432742;1270;99265;-40
2022/09/14 12:57:35;;;;;;;6.10;4.60;;;;;;;20.10;68.75;97573.62;432385;1270;112555;-40
2022/09/14 13:07:43;;;;;;;6.10;4.80;;;;;;;19.89;69.04;97569.61;432716;1270;108828;-39
2022/09/14 13:18:02;;;;;;;9.90;4.00;;;;;;;19.75;69.25;97569.89;433064;1270;99297;-39
2022/09/14 13:28:17;;;;;;;6.90;2.90;;;;;;;19.59;69.19;97558.66;432584;1270;109070;-41
2022/09/14 13:38:27;;;;;;;4.60;3.70;;;;;;;19.60;69.51;97553.20;432739;1270;98013;-40
2022/09/14 13:48:36;;;;;;;8.60;6.20;;;;;;;19.57;69.72;97524.88;432550;1270;113020;-40
2022/09/14 13:58:43;;;;;;;8.10;6.60;;;;;;;19.55;70.05;97521.09;432426;1270;108952;-39
2022/09/14 14:09:05;;;;;;;9.50;7.50;;;;;;;19.52;70.57;97512.27;432325;1270;99268;-40
2022/09/14 14:19:28;;;;;;;12.10;9.40;;;;;;;19.43;70.97;97498.04;432724;1269;107776;-40
2022/09/14 14:29:35;;;;;;;11.70;10.50;;;;;;;19.23;71.16;97500.48;432678;1270;99200;-40
2022/09/14 14:49:55;;;;;;;13.80;11.20;;;;;;;18.95;72.07;97511.45;432574;1270;107858;-42
2022/09/14 15:00:01;;;;;;;13.00;10.70;;;;;;;18.92;72.43;97506.55;433180;1270;98899;-41
2022/09/14 15:10:13;;;;;;;14.60;8.80;;;;;;;18.96;72.77;97500.55;432430;1270;109608;-41
2022/09/14 15:20:21;;;;;;;14.50;10.00;;;;;;;19.00;73.04;97492.39;433160;1270;99260;-40
2022/09/14 15:30:29;;;;;;;10.10;9.10;;;;;;;18.91;73.24;97481.14;433579;1269;112575;-41
2022/09/14 15:40:36;;;;;;;9.80;8.00;;;;;;;18.82;73.33;97476.20;433004;1270;108819;-40
2022/09/14 15:50:42;;;;;;;8.90;8.00;;;;;;;18.90;73.37;97471.73;432681;1270;98828;-39
2022/09/14 16:00:49;;;;;;;14.90;8.10;;;;;;;18.92;73.63;97464.60;433382;1269;108771;-39
2022/09/14 16:11:00;;;;;;;13.40;9.90;;;;;;;18.75;73.65;97461.88;432541;1270;99291;-39
2022/09/14 16:21:08;;;;;;;12.90;9.40;;;;;;;18.51;73.91;97464.45;432746;1270;112615;-39
2022/09/14 16:31:18;;;;;;;14.90;9.00;;;;;;;18.47;74.31;97470.89;433290;1270;108760;-39
2022/09/14 16:41:26;;;;;;;13.00;8.90;;;;;;;18.48;74.71;97463.88;432482;1270;99272;-40
2022/09/14 16:51:34;;;;;;;24.20;10.10;;;;;;;18.36;74.52;97461.60;433092;1270;108829;-40
2022/09/14 17:01:44;;;;;;;13.80;8.90;;;;;;;18.13;74.91;97449.38;432478;1270;98857;-39
2022/09/14 17:11:56;;;;;;;8.30;7.50;;;;;;;17.93;75.06;97440.38;433628;1270;112509;-39
2022/09/14 17:32:09;;;;;;;15.60;8.00;;;;;;;17.72;75.64;97447.93;432605;1270;99234;-40
2022/09/14 17:42:21;;;;;;;11.90;8.50;;;;;;;17.73;75.93;97463.86;432429;1270;108718;-38
2022/09/14 17:52:24;;;;;;;16.60;11.60;;;;;;;17.68;76.00;97457.11;433018;1269;99272;-40
2022/09/14 18:02:31;;;;;;;14.70;11.90;;;;;;;17.63;76.28;97446.97;432637;1270;111408;-39
2022/09/14 18:12:38;;;;;;;13.80;11.70;;;;;;;17.58;76.33;97453.66;431288;1270;1968871;-39
2022/09/14 18:22:45;;;;;;;16.20;11.60;;;;;;;17.55;76.36;97446.27;432476;1270;99248;-39
2022/09/14 18:32:53;;;;;;;14.00;11.40;;;;;;;17.51;76.71;97439.65;432573;1270;108768;-39
2022/09/14 18:43:00;;;;;;;12.70;11.30;;;;;;;17.43;76.78;97437.70;432803;1270;99266;-39
2022/09/14 18:53:08;;;;;;;18.80;13.70;;;;;;;17.37;76.93;97432.13;432445;1270;112553;-39
2022/09/14 19:03:15;;;;;;;19.10;14.20;;;;;;;17.30;77.31;97423.41;433167;1270;108716;-41
2022/09/14 19:13:23;;;;;;;19.20;15.30;;;;;;;17.13;77.47;97414.98;432264;1270;99231;-40
2022/09/14 19:23:30;;;;;;;17.60;13.90;;;;;;;17.00;77.82;97400.67;432137;1270;109138;-38
2022/09/14 19:33:38;;;;;;;15.70;12.90;;;;;;;16.93;78.31;97390.37;433136;1269;99263;-41
2022/09/14 19:43:51;;;;;;;12.00;10.60;;;;;;;16.93;78.49;97378.36;433487;1269;112493;-38
2022/09/14 19:54:00;;;;;;;12.20;10.40;;;;;;;16.97;78.67;97389.27;432466;1270;109689;-39
2022/09/14 20:04:09;;;;;;;14.50;10.60;;;;;;;17.11;78.88;97394.30;433224;1270;98856;-40
2022/09/14 20:14:16;;;;;;;;;;;;;;;17.09;78.93;97379.32;432455;1270;108874;-39
2022/09/14 20:24:26;;;;;;;12.50;10.10;;;;;;;16.99;79.26;97375.64;433054;1268;99254;-39
2022/09/14 20:44:40;;;;;;;13.90;9.10;;;;;;;17.09;79.48;97387.77;433112;1269;107806;-39
2022/09/14 20:54:48;;;;;;;10.90;8.50;;;;;;;17.13;79.37;97381.27;433228;1270;99237;-39
2022/09/14 21:15:01;;;;;;;8.60;7.60;;;;;;;16.95;79.83;97362.61;432180;1270;99788;-40
2022/09/14 21:25:10;;;;;;;7.80;7.00;;;;;;;16.96;79.89;97369.11;432094;1270;112445;-40
2022/09/14 21:35:16;;;;;;;;;;;;;;;16.86;79.76;97349.41;432307;1270;109066;-38
2022/09/14 21:45:22;;;;;;;4.70;4.30;;;;;;;16.72;80.19;97341.80;432538;1270;98847;-38
2022/09/14 21:55:29;;;;;;;6.10;3.80;;;;;;;16.71;80.24;97320.38;432351;1270;108876;-40
2022/09/14 22:05:37;;;;;;;8.90;4.20;;;;;;;16.68;80.48;97307.02;432218;1270;99328;-40
2022/09/14 22:15:45;;;;;;;4.70;4.30;;;;;;;16.66;80.58;97297.15;432686;1270;112425;-40
2022/09/14 22:25:53;;;;;;;5.10;4.30;;;;;;;16.64;80.52;97281.70;432838;1270;107755;-40
2022/09/14 22:36:02;;;;;;;4.10;3.80;;;;;;;16.63;80.56;97283.23;432376;1270;98802;-40
2022/09/14 22:46:10;;;;;;;7.60;4.30;;;;;;;16.54;80.80;97280.42;432455;1270;109126;-40
2022/09/14 22:56:23;;;;;;;6.20;4.00;;;;;;;16.52;80.82;97277.58;433448;1270;99396;-40
2022/09/14 23:06:32;;;;;;;4.30;3.40;;;;;;;16.42;80.64;97274.82;433140;1269;112395;-40
2022/09/14 23:16:40;;;;;;;4.50;3.50;;;;;;;16.33;80.98;97262.00;432880;1270;107161;-40
2022/09/14 23:26:47;;;;;;;3.20;2.20;;;;;;;16.24;81.06;97264.64;432913;1269;98837;-40
2022/09/14 23:36:55;;;;;;;4.30;2.60;;;;;;;16.15;81.09;97245.66;433252;1270;108761;-38
2022/09/14 23:47:03;;;;;;;4.40;2.70;;;;;;;15.96;81.20;97232.70;432316;1270;99246;-38
2022/09/14 23:57:10;;;;;;;29.30;13.80;;;;;;;15.81;81.60;97216.64;432648;1270;112595;-38
